Austin, TX (78746)

08:26 CDT le 24 octobre 2014 (GMT -0500)
Camelot | Change Station
CLOSE
Current Station
Stations météorologiques personnelles
Location: Austin, TX
Altitude: 925 ft
Stations météo à proximité

Alt. 925 ft 30.29 °N, 97.83 °W | Updated 8 seconds ago

Ciel dégagé
Ciel dégagé
60.8 ° F
Paraît 60.8 ° F
N
0.0
Vent Variable Vent de Sud
Gusts 0.0 mph

Aujourd'hui
Haut(e) -- | Bas -- ° F
--% Risque de précip.
Hier
Haut(e) -- | Bas -- ° F
Precip. -- pouce
7:39 AM 6:50 PM
Nouvelle lune, 0% visible
Pression 30.14 pouce
Visibilité 10.0 Miles terrestres
Nuages Ciel dégagé
Point de rosée 58 ° F
Humidité 91%
Précipitations 0.00 pouce
Profondeur de la couche neigeuse Non disponible.
UV 0 sur 12
Pollen 5.00 sur 12
Ozone Bon
PM2.5 Bon
Flu Activity Sporadic
METAR KATT 241251Z AUTO 00000KT 10SM CLR 16/13 A3016 RMK AO2 SLP206 T01560133

More Conditions Fewer Conditions

Pression 30.14 pouce
Visibilité 10.0 Miles terrestres
Nuages Ciel dégagé
Point de rosée 58 ° F
Humidité 91%
Précipitations 0.00 pouce
Profondeur de la couche neigeuse Non disponible.
UV 0 sur 12
Pollen 5.00 sur 12
Ozone Bon
PM2.5 Bon
Flu Activity Sporadic
METAR KATT 241251Z AUTO 00000KT 10SM CLR 16/13 A3016 RMK AO2 SLP206 T01560133

More Conditions Fewer Conditions

10-Day Weather Forecast

Almanac

Astronomie

Oct. 24, 2014 Lever Coucher
Temps réel 07:39 CDT 18:50 CDT
Crépuscule civil 07:15 CDT 19:15 CDT
Crépuscule nautique 06:46 CDT 19:43 CDT
Crépuscule astronomique 06:19 CDT 20:11 CDT
Lune 08:17 CDT 19:35 CDT
Durée de lumière visible 12h 00m
Longueur du jour
11h 11m
Tomorrow will be 1m 41s shorter.
Nouvelle lune, 0% of the Moon is Illuminated
Aujourd'hui
Nouvelle lune
Oct 30
Premier quartier
Nov 6
Pleine lune
Nov 14
Dernier quartier
Nov 22
Nouveau

Extrêmes aujourd'hui

State Highs State Lows

Community

WunderPhotos

Upload Photos

1,764,549 Photos téléchargées !

WunderBlogs® & News

Nearby

Qualité de l'air

  Qualité de l'air Indice de la qualité de l'air Polluant
Hier Moyen
OZONE
Hier Moyen
PM2.5
Actuel Bon
PM2.5
Actuel Bon
OZONE
vendredi Moyen
OZONE
vendredi Bon
PM10
samedi Moyen
OZONE
samedi Bon
PM10
dimanche Moyen
OZONE
dimanche Bon
PM10

Épaisseur de neige

Station Depth Altitude
Pas de nouvelles chutes de neige

Activité sismique

Ville Distance Mag. Time & Date
No recent earthquake activity has been reported nearby.
Minimum magnitude displayed is 2.5.

Températures des eaux côtières

Lieu Température
Aucun rapport de station

Stations météo à proximité